createdAt,value
2022-11-07T00:01:49.170Z,100361.97
2022-11-07T00:04:16.645Z,100355.06
2022-11-07T00:06:43.697Z,100349.88
2022-11-07T00:09:10.806Z,100348.13
2022-11-07T00:11:37.891Z,100354.91
2022-11-07T00:14:05.001Z,100351.50
2022-11-07T00:16:32.847Z,100337.78
2022-11-07T00:18:59.950Z,100337.78
2022-11-07T00:21:27.138Z,100334.38
2022-11-07T00:23:54.164Z,100327.47
2022-11-07T00:26:21.418Z,100337.78
2022-11-07T00:28:48.558Z,100339.50
2022-11-07T00:31:16.496Z,100327.47
2022-11-07T00:33:44.247Z,100315.47
2022-11-07T00:36:27.339Z,100300.03
2022-11-07T00:38:55.291Z,100306.88
2022-11-07T00:41:23.422Z,100297.47
2022-11-07T00:43:50.494Z,100293.16
2022-11-07T00:46:19.444Z,100288.03
2022-11-07T00:48:47.498Z,100284.59
2022-11-07T00:51:19.119Z,100279.47
2022-11-07T00:53:46.625Z,100278.63
2022-11-07T00:56:16.146Z,100269.13
2022-11-07T00:58:43.266Z,100268.34
2022-11-07T01:01:11.396Z,100265.81
2022-11-07T01:03:57.417Z,100246.09
2022-11-07T01:06:24.973Z,100257.25
2022-11-07T01:08:54.582Z,100252.13
2022-11-07T01:11:21.950Z,100246.94
2022-11-07T01:13:49.400Z,100240.16
2022-11-07T01:16:16.615Z,100228.19
2022-11-07T01:18:43.591Z,100242.72
2022-11-07T01:21:15.268Z,100247.84
2022-11-07T01:23:43.986Z,100242.69
2022-11-07T01:26:13.223Z,100234.13
2022-11-07T01:28:41.014Z,100219.59
2022-11-07T01:31:12.285Z,100220.44
2022-11-07T01:33:39.888Z,100212.66
2022-11-07T01:36:10.245Z,100204.13
2022-11-07T01:38:39.605Z,100224.59
2022-11-07T01:41:23.166Z,100270.69
2022-11-07T01:43:58.340Z,100286.88
2022-11-07T01:46:29.831Z,100268.88
2022-11-07T01:49:02.727Z,100269.84
2022-11-07T01:51:34.049Z,100272.38
2022-11-07T01:54:02.430Z,100256.13
2022-11-07T01:56:33.427Z,100238.13
2022-11-07T01:59:01.655Z,100238.22
2022-11-07T02:01:29.089Z,100227.91
2022-11-07T02:03:58.696Z,100215.09
2022-11-07T02:06:45.395Z,100216.78
2022-11-07T02:09:13.226Z,100221.00
2022-11-07T02:11:40.964Z,100234.69
2022-11-07T02:14:08.277Z,100226.13
2022-11-07T02:16:36.595Z,100219.34
2022-11-07T02:19:11.036Z,100190.00
2022-11-07T02:21:59.414Z,100224.34
2022-11-07T02:24:34.144Z,100219.22
2022-11-07T02:27:06.889Z,100220.97
2022-11-07T02:29:37.475Z,100208.97
2022-11-07T02:32:09.866Z,100198.75
2022-11-07T02:34:37.400Z,100200.47
2022-11-07T02:37:13.415Z,100201.25
2022-11-07T02:39:40.645Z,100200.47
2022-11-07T02:42:07.945Z,100195.31
2022-11-07T02:44:35.316Z,100203.00
2022-11-07T02:47:02.683Z,100207.22
2022-11-07T02:49:29.951Z,100200.38
2022-11-07T02:51:57.017Z,100186.66
2022-11-07T02:54:24.158Z,100177.22
2022-11-07T02:56:51.296Z,100172.94
2022-11-07T02:59:20.728Z,100174.63
2022-11-07T03:01:50.177Z,100172.94
2022-11-07T03:04:17.347Z,100162.56
2022-11-07T03:06:44.336Z,100174.59
2022-11-07T03:09:11.394Z,100178.00
2022-11-07T03:11:38.401Z,100166.84
2022-11-07T03:14:05.430Z,100163.38
2022-11-07T03:16:32.514Z,100160.00
2022-11-07T03:18:59.507Z,100171.97
2022-11-07T03:21:26.558Z,100164.25
2022-11-07T03:23:53.604Z,100162.50
2022-11-07T03:26:21.301Z,100168.47
2022-11-07T03:28:48.401Z,100172.66
2022-11-07T03:31:15.448Z,100176.16
2022-11-07T03:33:42.567Z,100181.28
2022-11-07T03:36:10.115Z,100169.28
2022-11-07T03:38:37.196Z,100150.31
2022-11-07T03:41:04.391Z,100167.59
2022-11-07T03:43:31.439Z,100174.41
2022-11-07T03:45:58.575Z,100174.38
2022-11-07T03:48:25.841Z,100164.13
2022-11-07T03:50:52.830Z,100171.00
2022-11-07T03:53:25.190Z,100171.00
2022-11-07T03:55:54.975Z,100176.13
2022-11-07T03:58:22.800Z,100176.13
2022-11-07T04:00:50.115Z,100174.34
2022-11-07T04:03:17.556Z,100172.69
2022-11-07T04:05:45.279Z,100162.41
2022-11-07T04:08:12.280Z,100155.53
2022-11-07T04:10:39.377Z,100152.13
2022-11-07T04:13:25.165Z,100145.34
2022-11-07T04:16:16.422Z,100144.47
2022-11-07T04:18:44.554Z,100136.69
2022-11-07T04:21:11.615Z,100144.47
2022-11-07T04:23:38.635Z,100147.03
2022-11-07T04:26:24.689Z,100141.94
2022-11-07T04:28:51.784Z,100145.44
2022-11-07T04:31:18.847Z,100142.00
2022-11-07T04:33:45.905Z,100126.66
2022-11-07T04:36:12.999Z,100142.09
2022-11-07T04:38:40.123Z,100141.22
2022-11-07T04:41:07.218Z,100128.31
2022-11-07T04:43:34.229Z,100130.09
2022-11-07T04:46:01.286Z,100136.06
2022-11-07T04:48:28.264Z,100130.09
2022-11-07T04:50:55.355Z,100124.94
2022-11-07T04:53:23.733Z,100121.53
2022-11-07T04:55:50.763Z,100119.00
2022-11-07T04:58:17.798Z,100118.19
2022-11-07T05:00:44.949Z,100113.09
2022-11-07T05:03:12.453Z,100107.91
2022-11-07T05:05:39.986Z,100114.75
2022-11-07T05:08:07.025Z,100114.78
2022-11-07T05:10:34.930Z,100119.91
2022-11-07T05:13:01.977Z,100114.78
2022-11-07T05:15:29.038Z,100112.16
2022-11-07T05:17:56.085Z,100113.97
2022-11-07T05:20:29.081Z,100109.69
2022-11-07T05:23:15.903Z,100099.41
2022-11-07T05:25:47.449Z,100116.47
2022-11-07T05:28:17.239Z,100114.00
2022-11-07T05:30:45.624Z,100115.72
2022-11-07T05:33:15.244Z,100120.03
2022-11-07T05:35:43.130Z,100114.88
2022-11-07T05:38:10.748Z,100123.47
2022-11-07T05:40:39.427Z,100110.69
2022-11-07T05:43:09.563Z,100116.66
2022-11-07T05:45:41.345Z,100113.25
2022-11-07T05:48:11.187Z,100120.13
2022-11-07T05:50:38.914Z,100111.50
2022-11-07T05:53:06.648Z,100111.56
2022-11-07T05:55:34.144Z,100120.16
2022-11-07T05:58:06.820Z,100133.81
2022-11-07T06:00:34.197Z,100128.72
2022-11-07T06:03:01.459Z,100135.56
2022-11-07T06:05:29.291Z,100133.03
2022-11-07T06:07:56.591Z,100128.78
2022-11-07T06:10:24.610Z,100137.38
2022-11-07T06:13:02.747Z,100137.34
2022-11-07T06:15:31.827Z,100135.59
2022-11-07T06:18:07.396Z,100148.47
2022-11-07T06:20:35.366Z,100151.00
2022-11-07T06:23:04.828Z,100151.09
2022-11-07T06:25:32.277Z,100151.09
2022-11-07T06:28:01.014Z,100147.69
2022-11-07T06:30:28.225Z,100153.72
2022-11-07T06:32:55.688Z,100156.31
2022-11-07T06:35:23.277Z,100152.03
2022-11-07T06:37:50.313Z,100166.63
2022-11-07T06:40:17.556Z,100160.66
2022-11-07T06:42:44.593Z,100169.28
2022-11-07T06:45:11.825Z,100165.03
2022-11-07T06:47:38.958Z,100154.84
2022-11-07T06:50:06.506Z,100161.72
2022-11-07T06:52:33.857Z,100171.13
2022-11-07T06:55:01.085Z,100168.63
2022-11-07T06:57:29.544Z,100170.31
2022-11-07T06:59:56.627Z,100178.09
2022-11-07T07:02:44.393Z,100180.75
2022-11-07T07:05:10.779Z,100175.66
2022-11-07T07:07:37.848Z,100176.56
2022-11-07T07:10:05.410Z,100175.72
2022-11-07T07:12:32.535Z,100170.63
2022-11-07T07:14:59.655Z,100170.66
2022-11-07T07:17:26.740Z,100174.13
2022-11-07T07:19:53.920Z,100169.09
2022-11-07T07:22:20.989Z,100187.94
2022-11-07T07:24:51.120Z,100182.00
2022-11-07T07:27:20.453Z,100169.16
2022-11-07T07:29:48.010Z,100176.09
2022-11-07T07:32:15.137Z,100173.50
2022-11-07T07:34:42.298Z,100172.72
2022-11-07T07:37:09.395Z,100179.59
2022-11-07T07:39:36.547Z,100179.59
2022-11-07T07:42:03.910Z,100183.06
2022-11-07T07:44:32.090Z,100174.50
2022-11-07T07:46:59.259Z,100182.22
2022-11-07T07:49:26.323Z,100179.66
2022-11-07T07:51:53.466Z,100181.47
2022-11-07T07:54:20.737Z,100188.31
2022-11-07T07:56:47.848Z,100186.66
2022-11-07T07:59:14.919Z,100183.25
2022-11-07T08:01:42.037Z,100186.75
2022-11-07T08:04:09.288Z,100188.53
2022-11-07T08:06:38.070Z,100190.25
2022-11-07T08:09:06.043Z,100179.97
2022-11-07T08:11:33.246Z,100188.56
2022-11-07T08:14:01.726Z,100190.31
2022-11-07T08:16:29.036Z,100189.47
2022-11-07T08:18:56.125Z,100190.34
2022-11-07T08:21:23.256Z,100189.50
2022-11-07T08:23:53.636Z,100189.53
2022-11-07T08:26:20.705Z,100195.53
2022-11-07T08:28:47.615Z,100183.53
2022-11-07T08:31:14.661Z,100180.16
2022-11-07T08:33:41.594Z,100185.38
2022-11-07T08:36:08.723Z,100187.13
2022-11-07T08:38:36.390Z,100182.00
2022-11-07T08:41:04.387Z,100188.91
2022-11-07T08:43:31.326Z,100190.63
2022-11-07T08:45:58.217Z,100182.91
2022-11-07T08:48:25.143Z,100187.22
2022-11-07T08:50:53.090Z,100193.22
2022-11-07T08:53:20.483Z,100180.34
2022-11-07T08:55:47.754Z,100185.50
2022-11-07T08:58:15.354Z,100188.94
2022-11-07T09:00:42.767Z,100183.78
2022-11-07T09:05:58.908Z,100187.19
2022-11-07T09:08:25.959Z,100200.09
2022-11-07T09:10:52.960Z,100195.78
2022-11-07T09:13:21.039Z,100192.34
2022-11-07T09:15:51.344Z,100199.22
2022-11-07T09:18:19.725Z,100199.25
2022-11-07T09:20:46.765Z,100200.09
2022-11-07T09:23:13.960Z,100206.09
2022-11-07T09:25:41.189Z,100196.63
2022-11-07T09:28:08.741Z,100195.78
2022-11-07T09:30:35.619Z,100200.94
2022-11-07T09:33:02.670Z,100199.22
2022-11-07T09:35:29.517Z,100195.75
2022-11-07T09:37:56.515Z,100203.50
2022-11-07T09:40:24.161Z,100201.78
2022-11-07T09:42:51.118Z,100199.22
2022-11-07T09:45:18.066Z,100210.41
2022-11-07T09:48:00.410Z,100211.25
2022-11-07T09:50:34.283Z,100218.94
2022-11-07T09:53:01.186Z,100209.47
2022-11-07T09:55:31.563Z,100209.44
2022-11-07T09:58:01.304Z,100220.59
2022-11-07T10:00:30.711Z,100218.03
2022-11-07T10:02:59.753Z,100213.69
2022-11-07T10:05:45.382Z,100223.13
2022-11-07T10:08:21.343Z,100219.66
2022-11-07T10:11:20.615Z,100219.63
2022-11-07T10:14:17.208Z,100217.03
2022-11-07T10:16:56.285Z,100219.56
2022-11-07T10:19:23.263Z,100217.00
2022-11-07T10:21:50.156Z,100222.97
2022-11-07T10:24:22.971Z,100222.97
2022-11-07T10:26:50.007Z,100229.00
2022-11-07T10:29:18.479Z,100236.72
2022-11-07T10:32:03.869Z,100235.88
2022-11-07T10:34:54.320Z,100235.88
2022-11-07T10:37:22.249Z,100234.19
2022-11-07T10:39:49.210Z,100236.75
2022-11-07T10:42:18.816Z,100235.06
2022-11-07T10:44:46.335Z,100230.75
2022-11-07T10:47:20.445Z,100223.00
2022-11-07T10:49:57.708Z,100227.31
2022-11-07T10:52:25.159Z,100228.19
2022-11-07T10:54:52.277Z,100228.19
2022-11-07T10:57:20.629Z,100223.03
2022-11-07T10:59:50.382Z,100226.47
2022-11-07T11:02:24.541Z,100229.88
2022-11-07T11:04:56.328Z,100219.56
2022-11-07T11:07:41.611Z,100224.72
2022-11-07T11:10:19.309Z,100221.31
2022-11-07T11:12:47.403Z,100226.47
2022-11-07T11:15:19.468Z,100229.91
2022-11-07T11:17:46.628Z,100228.16
2022-11-07T11:20:25.784Z,100219.56
2022-11-07T11:22:53.397Z,100217.81
2022-11-07T11:25:22.364Z,100217.81
2022-11-07T11:27:51.640Z,100221.25
2022-11-07T11:30:19.881Z,100224.72
2022-11-07T11:32:52.214Z,100222.13
2022-11-07T11:35:30.010Z,100224.72
2022-11-07T11:38:03.919Z,100228.16
2022-11-07T11:40:35.946Z,100229.03
2022-11-07T11:43:12.035Z,100222.97
2022-11-07T11:46:00.816Z,100231.59
2022-11-07T11:48:44.049Z,100223.88
2022-11-07T11:51:22.367Z,100230.78
2022-11-07T11:53:49.418Z,100232.47
2022-11-07T11:56:17.740Z,100222.97
2022-11-07T11:59:08.003Z,100226.41
2022-11-07T12:01:53.392Z,100227.28
2022-11-07T12:04:35.668Z,100233.31
2022-11-07T12:07:23.868Z,100228.13
2022-11-07T12:10:14.230Z,100223.81
2022-11-07T12:12:53.512Z,100219.53
2022-11-07T12:15:20.421Z,100225.56
2022-11-07T12:17:47.388Z,100216.06
2022-11-07T12:20:22.190Z,100222.97
2022-11-07T12:22:58.265Z,100220.34
2022-11-07T12:25:40.347Z,100219.47
2022-11-07T12:28:13.115Z,100217.75
2022-11-07T12:30:56.446Z,100216.91
2022-11-07T12:33:29.128Z,100221.19
2022-11-07T12:35:59.135Z,100221.16
2022-11-07T12:38:31.876Z,100222.88
2022-11-07T12:41:17.712Z,100217.69
2022-11-07T12:43:44.752Z,100218.56
2022-11-07T12:46:14.351Z,100218.59
2022-11-07T12:48:56.589Z,100220.28
2022-11-07T12:51:42.085Z,100215.97
2022-11-07T12:54:27.666Z,100220.28
2022-11-07T12:56:56.521Z,100222.84
2022-11-07T12:59:26.072Z,100229.69
2022-11-07T13:02:00.298Z,100224.50
2022-11-07T13:04:27.305Z,100223.66
2022-11-07T13:07:03.217Z,100229.69
2022-11-07T13:09:36.457Z,100230.53
2022-11-07T13:12:05.498Z,100226.22
2022-11-07T13:14:33.606Z,100234.78
2022-11-07T13:17:24.389Z,100233.94
2022-11-07T13:20:02.089Z,100243.41
2022-11-07T13:22:36.779Z,100239.97
2022-11-07T13:25:15.041Z,100243.41
2022-11-07T13:27:55.533Z,100238.25
2022-11-07T13:30:23.591Z,100242.56
2022-11-07T13:32:51.607Z,100234.81
2022-11-07T13:35:37.469Z,100230.50
2022-11-07T13:38:20.992Z,100227.97
2022-11-07T13:40:51.080Z,100228.84
2022-11-07T13:43:41.096Z,100224.59
2022-11-07T13:46:11.031Z,100227.22
2022-11-07T13:48:40.776Z,100230.66
2022-11-07T13:51:23.398Z,100226.34
2022-11-07T13:54:02.316Z,100224.63
2022-11-07T13:56:44.311Z,100226.34
2022-11-07T13:59:17.853Z,100230.63
2022-11-07T14:01:45.578Z,100224.59
2022-11-07T14:04:16.915Z,100226.34
2022-11-07T14:06:44.017Z,100221.16
2022-11-07T14:09:14.462Z,100228.06
2022-11-07T14:11:41.378Z,100229.78
2022-11-07T14:14:08.830Z,100236.69
2022-11-07T14:16:35.943Z,100238.44
2022-11-07T14:19:06.732Z,100238.47
2022-11-07T14:21:34.722Z,100239.31
2022-11-07T14:24:01.938Z,100235.03
2022-11-07T14:26:31.039Z,100239.31
2022-11-07T14:29:00.887Z,100236.75
2022-11-07T14:31:29.758Z,100231.63
2022-11-07T14:33:58.827Z,100233.34
2022-11-07T14:36:26.198Z,100240.22
2022-11-07T14:39:10.001Z,100235.94
2022-11-07T14:41:41.082Z,100234.22
2022-11-07T14:44:12.916Z,100229.94
2022-11-07T14:46:39.865Z,100232.50
2022-11-07T14:49:07.076Z,100233.41
2022-11-07T14:51:34.089Z,100233.41
2022-11-07T14:54:04.159Z,100232.53
2022-11-07T14:56:38.727Z,100233.41
2022-11-07T14:59:10.557Z,100234.28
2022-11-07T15:01:37.677Z,100240.31
2022-11-07T15:04:25.415Z,100239.47
2022-11-07T15:06:52.347Z,100248.94
2022-11-07T15:09:30.265Z,100245.50
2022-11-07T15:11:58.674Z,100247.22
2022-11-07T15:14:30.355Z,100263.56
2022-11-07T15:16:58.809Z,100257.53
2022-11-07T15:19:25.939Z,100264.44
2022-11-07T15:22:01.181Z,100270.44
2022-11-07T15:24:41.755Z,100271.28
2022-11-07T15:27:14.842Z,100271.28
2022-11-07T15:29:49.815Z,100283.34
2022-11-07T15:32:18.725Z,100268.69
2022-11-07T15:35:03.765Z,100270.44
2022-11-07T15:37:32.599Z,100271.28
2022-11-07T15:39:59.533Z,100271.28
2022-11-07T15:42:26.515Z,100278.19
2022-11-07T15:44:53.474Z,100266.13
2022-11-07T15:47:21.644Z,100267.00
2022-11-07T15:49:48.839Z,100271.28
2022-11-07T15:52:15.965Z,100270.44
2022-11-07T15:54:42.868Z,100271.28
2022-11-07T15:57:11.801Z,100269.59
2022-11-07T15:59:38.893Z,100273.91
2022-11-07T16:02:10.584Z,100275.59
2022-11-07T16:04:39.819Z,100273.00
2022-11-07T16:07:09.806Z,100264.44
2022-11-07T16:09:36.711Z,100266.13
2022-11-07T16:12:03.742Z,100265.28
2022-11-07T16:14:43.378Z,100268.72
2022-11-07T16:17:15.429Z,100269.59
2022-11-07T16:19:42.375Z,100273.03
2022-11-07T16:22:13.425Z,100273.00
2022-11-07T16:24:40.408Z,100274.75
2022-11-07T16:27:07.575Z,100271.28
2022-11-07T16:29:34.552Z,100276.47
2022-11-07T16:32:01.671Z,100273.03
2022-11-07T16:34:28.557Z,100269.59
2022-11-07T16:36:55.623Z,100274.75
2022-11-07T16:39:23.180Z,100270.44
2022-11-07T16:41:50.723Z,100269.56
2022-11-07T16:44:24.672Z,100267.88
2022-11-07T16:46:54.486Z,100267.88
2022-11-07T16:49:32.700Z,100270.41
2022-11-07T16:51:59.767Z,100271.28
2022-11-07T16:54:26.737Z,100270.44
2022-11-07T16:56:53.836Z,100268.72
2022-11-07T16:59:22.599Z,100276.44
2022-11-07T17:01:50.478Z,100275.59
2022-11-07T17:04:17.625Z,100277.31
2022-11-07T17:06:48.109Z,100273.88
2022-11-07T17:09:24.885Z,100279.91
2022-11-07T17:11:51.837Z,100279.03
2022-11-07T17:14:18.840Z,100279.03
2022-11-07T17:16:47.506Z,100283.34
2022-11-07T17:19:15.658Z,100287.63
2022-11-07T17:21:46.624Z,100294.50
2022-11-07T17:24:13.963Z,100291.94
2022-11-07T17:26:40.935Z,100294.47
2022-11-07T17:29:11.892Z,100279.84
2022-11-07T17:31:38.868Z,100290.19
2022-11-07T17:34:05.987Z,100298.75
2022-11-07T17:36:37.385Z,100288.44
2022-11-07T17:39:11.647Z,100286.72
2022-11-07T17:41:39.899Z,100287.56
2022-11-07T17:44:07.010Z,100283.28
2022-11-07T17:46:34.693Z,100286.69
2022-11-07T17:49:03.027Z,100274.66
2022-11-07T17:51:30.095Z,100290.16
2022-11-07T17:53:58.025Z,100285.00
2022-11-07T17:56:26.859Z,100279.84
2022-11-07T17:58:55.170Z,100284.13
2022-11-07T18:01:23.594Z,100291.03
2022-11-07T18:03:51.458Z,100283.28
2022-11-07T18:06:18.745Z,100283.28
2022-11-07T18:08:52.269Z,100286.72
2022-11-07T18:11:20.457Z,100296.19
2022-11-07T18:13:50.068Z,100296.19
2022-11-07T18:16:18.837Z,100283.28
2022-11-07T18:18:45.822Z,100293.63
2022-11-07T18:21:13.288Z,100293.63
2022-11-07T18:23:40.808Z,100291.91
2022-11-07T18:26:11.956Z,100295.34
2022-11-07T18:28:40.151Z,100291.91
2022-11-07T18:31:07.013Z,100294.47
2022-11-07T18:33:34.033Z,100296.19
2022-11-07T18:36:01.960Z,100289.31
2022-11-07T18:38:29.219Z,100289.31
2022-11-07T18:41:00.214Z,100287.59
2022-11-07T18:43:27.218Z,100286.72
2022-11-07T18:45:54.756Z,100285.00
2022-11-07T18:48:22.112Z,100289.28
2022-11-07T18:50:49.601Z,100280.66
2022-11-07T18:53:17.195Z,100285.84
2022-11-07T18:55:44.116Z,100286.69
2022-11-07T18:58:11.094Z,100286.66
2022-11-07T19:00:38.152Z,100283.25
2022-11-07T19:03:05.106Z,100284.09
2022-11-07T19:05:33.420Z,100283.22
2022-11-07T19:08:02.034Z,100284.09
2022-11-07T19:10:28.905Z,100284.09
2022-11-07T19:12:55.796Z,100295.25
2022-11-07T19:15:25.233Z,100289.22
2022-11-07T19:17:52.146Z,100283.19
2022-11-07T19:20:20.635Z,100290.94
2022-11-07T19:22:47.588Z,100295.25
2022-11-07T19:25:18.998Z,100292.69
2022-11-07T19:27:47.368Z,100288.34
2022-11-07T19:30:15.077Z,100284.06
2022-11-07T19:32:42.339Z,100295.22
2022-11-07T19:35:09.700Z,100281.47
2022-11-07T19:37:36.702Z,100293.50
2022-11-07T19:40:03.865Z,100284.94
2022-11-07T19:42:30.882Z,100286.63
2022-11-07T19:44:57.839Z,100295.25
2022-11-07T19:47:24.783Z,100288.34
2022-11-07T19:49:51.714Z,100285.75
2022-11-07T19:52:18.655Z,100290.09
2022-11-07T19:54:45.849Z,100294.38
2022-11-07T19:57:12.795Z,100290.06
2022-11-07T19:59:39.731Z,100282.34
2022-11-07T20:02:31.676Z,100296.94
2022-11-07T20:04:55.867Z,100298.66
2022-11-07T20:07:22.870Z,100305.56
2022-11-07T20:09:49.766Z,100299.50
2022-11-07T20:12:16.739Z,100298.66
2022-11-07T20:14:43.743Z,100306.38
2022-11-07T20:17:10.668Z,100302.97
2022-11-07T20:19:38.248Z,100296.91
2022-11-07T20:22:05.206Z,100307.25
2022-11-07T20:24:32.249Z,100303.81
2022-11-07T20:26:59.199Z,100310.69
2022-11-07T20:29:26.316Z,100307.25
2022-11-07T20:31:53.525Z,100310.69
2022-11-07T20:34:20.712Z,100312.41
2022-11-07T20:36:49.246Z,100308.97
2022-11-07T20:39:16.219Z,100307.25
2022-11-07T20:41:43.926Z,100306.41
2022-11-07T20:44:12.938Z,100310.69
2022-11-07T20:46:41.936Z,100309.81
2022-11-07T20:49:10.738Z,100306.41
2022-11-07T20:51:37.782Z,100312.41
2022-11-07T20:54:04.762Z,100312.41
2022-11-07T20:56:32.134Z,100302.09
2022-11-07T20:58:59.094Z,100308.97
2022-11-07T21:01:27.618Z,100308.09
2022-11-07T21:03:55.356Z,100320.16
2022-11-07T21:06:22.358Z,100299.47
2022-11-07T21:08:50.021Z,100308.09
2022-11-07T21:11:17.122Z,100307.25
2022-11-07T21:13:49.635Z,100305.50
2022-11-07T21:16:19.910Z,100311.53
2022-11-07T21:18:47.105Z,100314.09
2022-11-07T21:21:16.715Z,100317.53
2022-11-07T21:23:43.658Z,100314.97
2022-11-07T21:26:13.266Z,100314.09
2022-11-07T21:28:40.628Z,100314.09
2022-11-07T21:31:09.576Z,100314.09
2022-11-07T21:33:36.706Z,100313.25
2022-11-07T21:36:07.736Z,100310.66
2022-11-07T21:38:34.607Z,100310.66
2022-11-07T21:41:04.505Z,100320.97
2022-11-07T21:43:31.473Z,100319.22
2022-11-07T21:46:18.851Z,100322.69
2022-11-07T21:48:46.135Z,100317.50
2022-11-07T21:51:13.015Z,100319.22
2022-11-07T21:53:40.063Z,100317.53
2022-11-07T21:56:07.710Z,100316.63
2022-11-07T21:58:34.691Z,100312.31
2022-11-07T22:01:05.636Z,100326.09
2022-11-07T22:04:03.620Z,100319.22
2022-11-07T22:06:21.076Z,100323.50
2022-11-07T22:08:49.095Z,100330.41
2022-11-07T22:11:16.383Z,100320.94
2022-11-07T22:13:43.629Z,100331.25
2022-11-07T22:16:14.928Z,100332.13
2022-11-07T22:18:42.388Z,100329.56
2022-11-07T22:21:10.661Z,100333.84
2022-11-07T22:23:38.183Z,100327.81
2022-11-07T22:26:06.096Z,100326.09
2022-11-07T22:28:33.341Z,100329.56
2022-11-07T22:31:05.305Z,100322.63
2022-11-07T22:33:32.384Z,100315.75
2022-11-07T22:36:00.117Z,100326.06
2022-11-07T22:38:27.031Z,100324.38
2022-11-07T22:40:53.921Z,100326.06
2022-11-07T22:43:20.890Z,100321.78
2022-11-07T22:45:47.796Z,100328.66
2022-11-07T22:48:15.009Z,100327.78
2022-11-07T22:50:43.436Z,100332.06
2022-11-07T22:53:11.069Z,100327.78
2022-11-07T22:55:38.837Z,100332.06
2022-11-07T22:58:06.175Z,100330.34
2022-11-07T23:00:33.685Z,100331.22
2022-11-07T23:03:00.642Z,100339.84
2022-11-07T23:05:27.627Z,100338.97
2022-11-07T23:07:54.574Z,100336.38
2022-11-07T23:10:21.510Z,100333.78
2022-11-07T23:12:48.431Z,100327.78
2022-11-07T23:15:15.385Z,100329.47
2022-11-07T23:17:42.347Z,100334.66
2022-11-07T23:20:10.440Z,100327.78
2022-11-07T23:22:37.338Z,100331.19
2022-11-07T23:25:04.377Z,100327.75
2022-11-07T23:27:31.334Z,100332.03
2022-11-07T23:29:58.288Z,100332.03
2022-11-07T23:32:26.099Z,100334.63
2022-11-07T23:34:55.585Z,100333.78
2022-11-07T23:37:22.549Z,100335.47
2022-11-07T23:39:49.482Z,100327.75
2022-11-07T23:42:16.364Z,100334.63
2022-11-07T23:45:01.868Z,100326.84
2022-11-07T23:47:47.426Z,100328.59
2022-11-07T23:50:32.877Z,100324.28
2022-11-07T23:52:59.828Z,100331.16
2022-11-07T23:55:41.960Z,100325.16
2022-11-07T23:58:27.437Z,100332.91
